sensor_id;sensor_type;location;lat;lon;timestamp;temperature;humidity
16253;DHT22;8234;41.480;2.306;2022-10-31T00:06:55;18.10;99.90
16253;DHT22;8234;41.480;2.306;2022-10-31T00:16:59;18.00;99.90
16253;DHT22;8234;41.480;2.306;2022-10-31T00:27:06;18.00;99.90
16253;DHT22;8234;41.480;2.306;2022-10-31T00:37:13;18.00;99.90
16253;DHT22;8234;41.480;2.306;2022-10-31T00:47:18;18.10;99.90
16253;DHT22;8234;41.480;2.306;2022-10-31T00:57:22;18.00;99.90
16253;DHT22;8234;41.480;2.306;2022-10-31T01:07:27;17.90;99.90
16253;DHT22;8234;41.480;2.306;2022-10-31T01:17:34;17.90;99.90
16253;DHT22;8234;41.480;2.306;2022-10-31T01:27:39;18.10;99.90
16253;DHT22;8234;41.480;2.306;2022-10-31T01:37:43;18.30;99.90
16253;DHT22;8234;41.480;2.306;2022-10-31T01:47:48;18.50;99.90
16253;DHT22;8234;41.480;2.306;2022-10-31T01:57:56;18.50;99.90
16253;DHT22;8234;41.480;2.306;2022-10-31T02:08:06;18.30;99.90
16253;DHT22;8234;41.480;2.306;2022-10-31T02:18:13;18.30;99.90
16253;DHT22;8234;41.480;2.306;2022-10-31T02:28:33;18.20;99.90
16253;DHT22;8234;41.480;2.306;2022-10-31T02:38:51;18.10;99.90
16253;DHT22;8234;41.480;2.306;2022-10-31T02:48:58;17.90;99.90
16253;DHT22;8234;41.480;2.306;2022-10-31T02:59:05;17.80;99.90
16253;DHT22;8234;41.480;2.306;2022-10-31T03:09:13;17.80;99.90
16253;DHT22;8234;41.480;2.306;2022-10-31T03:19:26;17.70;99.90
16253;DHT22;8234;41.480;2.306;2022-10-31T03:29:35;17.70;99.90
16253;DHT22;8234;41.480;2.306;2022-10-31T03:39:42;17.70;99.90
16253;DHT22;8234;41.480;2.306;2022-10-31T03:49:48;17.70;99.90
16253;DHT22;8234;41.480;2.306;2022-10-31T03:59:57;17.60;99.90
16253;DHT22;8234;41.480;2.306;2022-10-31T04:10:05;17.50;99.90
16253;DHT22;8234;41.480;2.306;2022-10-31T04:20:15;17.40;99.90
16253;DHT22;8234;41.480;2.306;2022-10-31T04:30:19;17.40;99.90
16253;DHT22;8234;41.480;2.306;2022-10-31T04:40:24;17.30;99.90
16253;DHT22;8234;41.480;2.306;2022-10-31T04:50:28;17.10;99.90
16253;DHT22;8234;41.480;2.306;2022-10-31T05:00:33;17.20;99.90
16253;DHT22;8234;41.480;2.306;2022-10-31T05:10:37;17.30;99.90
16253;DHT22;8234;41.480;2.306;2022-10-31T05:20:42;17.30;99.90
16253;DHT22;8234;41.480;2.306;2022-10-31T05:30:46;17.10;99.90
16253;DHT22;8234;41.480;2.306;2022-10-31T05:40:55;17.10;99.90
16253;DHT22;8234;41.480;2.306;2022-10-31T05:51:05;17.00;99.90
16253;DHT22;8234;41.480;2.306;2022-10-31T06:01:10;17.00;99.90
16253;DHT22;8234;41.480;2.306;2022-10-31T06:11:14;17.00;99.90
16253;DHT22;8234;41.480;2.306;2022-10-31T06:21:19;17.20;99.90
16253;DHT22;8234;41.480;2.306;2022-10-31T06:31:23;17.40;99.90
16253;DHT22;8234;41.480;2.306;2022-10-31T06:41:28;17.50;99.90
16253;DHT22;8234;41.480;2.306;2022-10-31T06:51:32;17.60;99.90
16253;DHT22;8234;41.480;2.306;2022-10-31T07:01:37;17.70;99.90
16253;DHT22;8234;41.480;2.306;2022-10-31T07:11:41;17.70;99.90
16253;DHT22;8234;41.480;2.306;2022-10-31T07:21:46;17.80;99.90
16253;DHT22;8234;41.480;2.306;2022-10-31T07:31:50;18.10;99.90
16253;DHT22;8234;41.480;2.306;2022-10-31T07:41:58;18.60;99.90
16253;DHT22;8234;41.480;2.306;2022-10-31T07:52:01;19.20;99.90
16253;DHT22;8234;41.480;2.306;2022-10-31T08:02:07;19.30;99.90
16253;DHT22;8234;41.480;2.306;2022-10-31T08:12:11;19.30;99.90
16253;DHT22;8234;41.480;2.306;2022-10-31T08:22:17;19.80;99.90
16253;DHT22;8234;41.480;2.306;2022-10-31T08:32:21;20.30;99.90
16253;DHT22;8234;41.480;2.306;2022-10-31T08:42:26;20.90;99.90
16253;DHT22;8234;41.480;2.306;2022-10-31T08:52:30;21.60;99.90
16253;DHT22;8234;41.480;2.306;2022-10-31T09:02:59;21.80;99.90
16253;DHT22;8234;41.480;2.306;2022-10-31T09:13:05;21.90;99.90
16253;DHT22;8234;41.480;2.306;2022-10-31T09:23:13;21.80;99.90
16253;DHT22;8234;41.480;2.306;2022-10-31T09:33:18;21.90;99.90
16253;DHT22;8234;41.480;2.306;2022-10-31T09:43:33;22.50;99.90
16253;DHT22;8234;41.480;2.306;2022-10-31T09:53:43;23.40;99.90
16253;DHT22;8234;41.480;2.306;2022-10-31T10:03:50;23.40;99.90
16253;DHT22;8234;41.480;2.306;2022-10-31T10:14:08;23.50;99.90
16253;DHT22;8234;41.480;2.306;2022-10-31T10:24:33;23.50;99.90
16253;DHT22;8234;41.480;2.306;2022-10-31T10:34:45;24.10;99.90
16253;DHT22;8234;41.480;2.306;2022-10-31T10:44:51;24.60;99.90
16253;DHT22;8234;41.480;2.306;2022-10-31T10:55:17;24.70;99.90
16253;DHT22;8234;41.480;2.306;2022-10-31T11:05:35;24.60;99.90
16253;DHT22;8234;41.480;2.306;2022-10-31T11:15:51;25.10;99.90
16253;DHT22;8234;41.480;2.306;2022-10-31T11:25:58;25.40;99.90
16253;DHT22;8234;41.480;2.306;2022-10-31T11:36:16;25.30;99.90
16253;DHT22;8234;41.480;2.306;2022-10-31T11:46:30;25.50;99.90
16253;DHT22;8234;41.480;2.306;2022-10-31T11:56:39;25.70;99.90
16253;DHT22;8234;41.480;2.306;2022-10-31T12:06:46;25.40;99.90
16253;DHT22;8234;41.480;2.306;2022-10-31T12:16:55;25.40;99.90
16253;DHT22;8234;41.480;2.306;2022-10-31T12:27:12;25.80;99.90
16253;DHT22;8234;41.480;2.306;2022-10-31T12:37:26;25.60;99.90
16253;DHT22;8234;41.480;2.306;2022-10-31T12:47:49;25.50;99.90
16253;DHT22;8234;41.480;2.306;2022-10-31T12:58:00;25.40;99.90
16253;DHT22;8234;41.480;2.306;2022-10-31T13:08:09;25.00;99.90
16253;DHT22;8234;41.480;2.306;2022-10-31T13:18:19;24.70;99.90
16253;DHT22;8234;41.480;2.306;2022-10-31T13:28:34;25.10;99.90
16253;DHT22;8234;41.480;2.306;2022-10-31T13:38:45;25.00;99.90
16253;DHT22;8234;41.480;2.306;2022-10-31T13:48:51;25.50;99.90
16253;DHT22;8234;41.480;2.306;2022-10-31T13:59:18;24.80;99.90
16253;DHT22;8234;41.480;2.306;2022-10-31T14:09:31;24.50;99.90
16253;DHT22;8234;41.480;2.306;2022-10-31T14:19:35;25.90;99.90
16253;DHT22;8234;41.480;2.306;2022-10-31T14:29:40;25.60;99.90
16253;DHT22;8234;41.480;2.306;2022-10-31T14:40:16;24.60;99.90
16253;DHT22;8234;41.480;2.306;2022-10-31T14:50:29;24.40;99.90
16253;DHT22;8234;41.480;2.306;2022-10-31T15:00:36;25.30;99.90
16253;DHT22;8234;41.480;2.306;2022-10-31T15:10:46;24.50;99.90
16253;DHT22;8234;41.480;2.306;2022-10-31T15:20:50;23.60;99.90
16253;DHT22;8234;41.480;2.306;2022-10-31T15:30:57;23.00;99.90
16253;DHT22;8234;41.480;2.306;2022-10-31T15:41:03;22.20;99.90
16253;DHT22;8234;41.480;2.306;2022-10-31T15:51:09;22.50;99.90
16253;DHT22;8234;41.480;2.306;2022-10-31T16:01:21;22.10;99.90
16253;DHT22;8234;41.480;2.306;2022-10-31T16:11:33;22.20;99.90
16253;DHT22;8234;41.480;2.306;2022-10-31T16:21:38;22.20;99.90
16253;DHT22;8234;41.480;2.306;2022-10-31T16:31:46;22.00;99.90
16253;DHT22;8234;41.480;2.306;2022-10-31T16:41:52;21.70;99.90
16253;DHT22;8234;41.480;2.306;2022-10-31T16:52:00;21.60;99.90
16253;DHT22;8234;41.480;2.306;2022-10-31T17:02:04;21.90;99.90
16253;DHT22;8234;41.480;2.306;2022-10-31T17:12:16;21.70;99.90
16253;DHT22;8234;41.480;2.306;2022-10-31T17:22:21;21.60;99.90
16253;DHT22;8234;41.480;2.306;2022-10-31T17:32:26;21.80;99.90
16253;DHT22;8234;41.480;2.306;2022-10-31T17:42:30;22.00;99.90
16253;DHT22;8234;41.480;2.306;2022-10-31T17:52:36;21.90;99.90
16253;DHT22;8234;41.480;2.306;2022-10-31T18:02:39;22.00;99.90
16253;DHT22;8234;41.480;2.306;2022-10-31T18:12:45;21.70;99.90
16253;DHT22;8234;41.480;2.306;2022-10-31T18:22:50;21.40;99.90
16253;DHT22;8234;41.480;2.306;2022-10-31T18:32:55;21.50;99.90
16253;DHT22;8234;41.480;2.306;2022-10-31T18:42:59;21.40;99.90
16253;DHT22;8234;41.480;2.306;2022-10-31T18:53:04;21.90;99.90
16253;DHT22;8234;41.480;2.306;2022-10-31T19:03:08;21.60;99.90
16253;DHT22;8234;41.480;2.306;2022-10-31T19:13:13;21.60;99.90
16253;DHT22;8234;41.480;2.306;2022-10-31T19:23:17;21.50;99.90
16253;DHT22;8234;41.480;2.306;2022-10-31T19:33:23;21.50;99.90
16253;DHT22;8234;41.480;2.306;2022-10-31T19:43:34;21.40;99.90
16253;DHT22;8234;41.480;2.306;2022-10-31T19:53:39;21.60;99.90
16253;DHT22;8234;41.480;2.306;2022-10-31T20:03:44;21.60;99.90
16253;DHT22;8234;41.480;2.306;2022-10-31T20:13:50;21.50;99.90
16253;DHT22;8234;41.480;2.306;2022-10-31T20:23:54;21.50;99.90
16253;DHT22;8234;41.480;2.306;2022-10-31T20:34:00;21.10;99.90
16253;DHT22;8234;41.480;2.306;2022-10-31T20:44:04;20.80;99.90
16253;DHT22;8234;41.480;2.306;2022-10-31T20:54:11;20.90;99.90
16253;DHT22;8234;41.480;2.306;2022-10-31T21:04:15;21.10;99.90
16253;DHT22;8234;41.480;2.306;2022-10-31T21:14:20;20.90;99.90
16253;DHT22;8234;41.480;2.306;2022-10-31T21:24:24;20.70;99.90
16253;DHT22;8234;41.480;2.306;2022-10-31T21:34:31;20.50;99.90
16253;DHT22;8234;41.480;2.306;2022-10-31T21:44:35;20.50;99.90
16253;DHT22;8234;41.480;2.306;2022-10-31T21:54:41;20.40;99.90
16253;DHT22;8234;41.480;2.306;2022-10-31T22:04:44;20.40;99.90
16253;DHT22;8234;41.480;2.306;2022-10-31T22:14:52;20.80;99.90
16253;DHT22;8234;41.480;2.306;2022-10-31T22:24:56;21.00;99.90
16253;DHT22;8234;41.480;2.306;2022-10-31T22:35:02;21.20;99.90
16253;DHT22;8234;41.480;2.306;2022-10-31T22:45:07;21.20;99.90
16253;DHT22;8234;41.480;2.306;2022-10-31T22:55:12;21.10;99.90
16253;DHT22;8234;41.480;2.306;2022-10-31T23:05:16;21.20;99.90
16253;DHT22;8234;41.480;2.306;2022-10-31T23:15:22;21.20;99.90
16253;DHT22;8234;41.480;2.306;2022-10-31T23:25:25;21.10;99.90
16253;DHT22;8234;41.480;2.306;2022-10-31T23:35:48;20.80;99.90
16253;DHT22;8234;41.480;2.306;2022-10-31T23:45:52;20.60;99.90
16253;DHT22;8234;41.480;2.306;2022-10-31T23:55:57;20.50;99.90
